sensor_id;sensor_type;location;lat;lon;timestamp;temperature;humidity
23532;DHT22;11943;52.270;20.978;2023-04-25T00:00:27;12.70;99.90
23532;DHT22;11943;52.270;20.978;2023-04-25T00:02:53;12.70;99.90
23532;DHT22;11943;52.270;20.978;2023-04-25T00:05:18;12.70;99.90
23532;DHT22;11943;52.270;20.978;2023-04-25T00:07:45;12.60;99.90
23532;DHT22;11943;52.270;20.978;2023-04-25T00:10:11;12.60;99.90
23532;DHT22;11943;52.270;20.978;2023-04-25T00:12:37;12.60;99.90
23532;DHT22;11943;52.270;20.978;2023-04-25T00:15:04;12.60;99.90
23532;DHT22;11943;52.270;20.978;2023-04-25T00:17:30;12.50;99.90
23532;DHT22;11943;52.270;20.978;2023-04-25T00:19:56;12.50;99.90
23532;DHT22;11943;52.270;20.978;2023-04-25T00:22:23;12.50;99.90
23532;DHT22;11943;52.270;20.978;2023-04-25T00:24:49;12.50;99.90
23532;DHT22;11943;52.270;20.978;2023-04-25T00:27:15;12.40;99.90
23532;DHT22;11943;52.270;20.978;2023-04-25T00:29:41;12.40;99.90
23532;DHT22;11943;52.270;20.978;2023-04-25T00:32:07;12.40;99.90
23532;DHT22;11943;52.270;20.978;2023-04-25T00:34:32;12.30;99.90
23532;DHT22;11943;52.270;20.978;2023-04-25T00:36:59;12.20;99.90
23532;DHT22;11943;52.270;20.978;2023-04-25T00:39:27;12.20;99.90
23532;DHT22;11943;52.270;20.978;2023-04-25T00:41:54;12.20;99.90
23532;DHT22;11943;52.270;20.978;2023-04-25T00:44:20;12.20;99.90
23532;DHT22;11943;52.270;20.978;2023-04-25T00:46:47;12.20;99.90
23532;DHT22;11943;52.270;20.978;2023-04-25T00:49:13;12.10;99.90
23532;DHT22;11943;52.270;20.978;2023-04-25T00:51:41;12.10;99.90
23532;DHT22;11943;52.270;20.978;2023-04-25T00:54:07;12.20;99.90
23532;DHT22;11943;52.270;20.978;2023-04-25T00:56:33;12.20;99.90
23532;DHT22;11943;52.270;20.978;2023-04-25T00:58:59;12.20;99.90
23532;DHT22;11943;52.270;20.978;2023-04-25T01:01:24;12.20;99.90
23532;DHT22;11943;52.270;20.978;2023-04-25T01:03:50;12.20;99.90
23532;DHT22;11943;52.270;20.978;2023-04-25T01:06:16;12.20;99.90
23532;DHT22;11943;52.270;20.978;2023-04-25T01:08:42;12.20;99.90
23532;DHT22;11943;52.270;20.978;2023-04-25T01:11:08;12.10;99.90
23532;DHT22;11943;52.270;20.978;2023-04-25T01:13:34;12.10;99.90
23532;DHT22;11943;52.270;20.978;2023-04-25T01:16:01;12.10;99.90
23532;DHT22;11943;52.270;20.978;2023-04-25T01:18:27;12.10;99.90
23532;DHT22;11943;52.270;20.978;2023-04-25T01:20:53;12.00;99.90
23532;DHT22;11943;52.270;20.978;2023-04-25T01:23:23;12.00;99.90
23532;DHT22;11943;52.270;20.978;2023-04-25T01:25:49;12.00;99.90
23532;DHT22;11943;52.270;20.978;2023-04-25T01:28:15;12.00;99.90
23532;DHT22;11943;52.270;20.978;2023-04-25T01:30:41;12.00;99.90
23532;DHT22;11943;52.270;20.978;2023-04-25T01:33:08;12.00;99.90
23532;DHT22;11943;52.270;20.978;2023-04-25T01:35:34;11.90;99.90
23532;DHT22;11943;52.270;20.978;2023-04-25T01:38:00;11.90;99.90
23532;DHT22;11943;52.270;20.978;2023-04-25T01:40:27;11.90;99.90
23532;DHT22;11943;52.270;20.978;2023-04-25T01:42:54;11.80;99.90
23532;DHT22;11943;52.270;20.978;2023-04-25T01:45:20;11.90;99.90
23532;DHT22;11943;52.270;20.978;2023-04-25T02:07:57;11.70;99.90
23532;DHT22;11943;52.270;20.978;2023-04-25T02:10:23;11.70;99.90
23532;DHT22;11943;52.270;20.978;2023-04-25T02:12:49;11.70;99.90
23532;DHT22;11943;52.270;20.978;2023-04-25T02:15:14;11.60;99.90
23532;DHT22;11943;52.270;20.978;2023-04-25T02:17:40;11.60;99.90
23532;DHT22;11943;52.270;20.978;2023-04-25T02:20:06;11.60;99.90
23532;DHT22;11943;52.270;20.978;2023-04-25T02:22:32;11.60;99.90
23532;DHT22;11943;52.270;20.978;2023-04-25T02:24:59;11.60;99.90
23532;DHT22;11943;52.270;20.978;2023-04-25T02:27:25;11.60;99.90
23532;DHT22;11943;52.270;20.978;2023-04-25T02:29:50;11.60;99.90
23532;DHT22;11943;52.270;20.978;2023-04-25T02:32:16;11.60;99.90
23532;DHT22;11943;52.270;20.978;2023-04-25T02:34:41;11.60;99.90
23532;DHT22;11943;52.270;20.978;2023-04-25T02:37:07;11.50;99.90
23532;DHT22;11943;52.270;20.978;2023-04-25T02:39:33;11.60;99.90
23532;DHT22;11943;52.270;20.978;2023-04-25T02:41:58;11.50;99.90
23532;DHT22;11943;52.270;20.978;2023-04-25T02:44:24;11.50;99.90
23532;DHT22;11943;52.270;20.978;2023-04-25T02:46:50;11.40;99.90
23532;DHT22;11943;52.270;20.978;2023-04-25T02:49:15;11.50;99.90
23532;DHT22;11943;52.270;20.978;2023-04-25T02:51:41;11.40;99.90
23532;DHT22;11943;52.270;20.978;2023-04-25T02:54:07;11.40;99.90
23532;DHT22;11943;52.270;20.978;2023-04-25T02:56:32;11.30;99.90
23532;DHT22;11943;52.270;20.978;2023-04-25T02:58:59;11.30;99.90
23532;DHT22;11943;52.270;20.978;2023-04-25T03:01:25;11.30;99.90
23532;DHT22;11943;52.270;20.978;2023-04-25T03:03:50;11.30;99.90
23532;DHT22;11943;52.270;20.978;2023-04-25T03:06:16;11.30;99.90
23532;DHT22;11943;52.270;20.978;2023-04-25T03:08:42;11.30;99.90
23532;DHT22;11943;52.270;20.978;2023-04-25T03:11:08;11.30;99.90
23532;DHT22;11943;52.270;20.978;2023-04-25T03:13:33;11.30;99.90
23532;DHT22;11943;52.270;20.978;2023-04-25T03:15:59;11.30;99.90
23532;DHT22;11943;52.270;20.978;2023-04-25T03:18:25;11.30;99.90
23532;DHT22;11943;52.270;20.978;2023-04-25T03:20:51;11.30;99.90
23532;DHT22;11943;52.270;20.978;2023-04-25T03:23:16;11.30;99.90
23532;DHT22;11943;52.270;20.978;2023-04-25T03:25:42;11.30;99.90
23532;DHT22;11943;52.270;20.978;2023-04-25T03:28:08;11.40;99.90
23532;DHT22;11943;52.270;20.978;2023-04-25T03:30:33;11.40;99.90
23532;DHT22;11943;52.270;20.978;2023-04-25T03:32:59;11.30;99.90
23532;DHT22;11943;52.270;20.978;2023-04-25T03:35:25;11.30;99.90
23532;DHT22;11943;52.270;20.978;2023-04-25T03:37:50;11.30;99.90
23532;DHT22;11943;52.270;20.978;2023-04-25T03:40:16;11.30;99.90
23532;DHT22;11943;52.270;20.978;2023-04-25T03:42:41;11.40;99.90
23532;DHT22;11943;52.270;20.978;2023-04-25T03:45:08;11.40;99.90
23532;DHT22;11943;52.270;20.978;2023-04-25T03:47:33;11.40;99.90
23532;DHT22;11943;52.270;20.978;2023-04-25T03:49:59;11.50;99.90
23532;DHT22;11943;52.270;20.978;2023-04-25T03:52:26;11.50;99.90
23532;DHT22;11943;52.270;20.978;2023-04-25T03:54:52;11.50;99.90
23532;DHT22;11943;52.270;20.978;2023-04-25T03:57:18;11.50;99.90
23532;DHT22;11943;52.270;20.978;2023-04-25T03:59:44;11.50;99.90
23532;DHT22;11943;52.270;20.978;2023-04-25T04:02:10;11.60;99.90
23532;DHT22;11943;52.270;20.978;2023-04-25T04:04:35;11.60;99.90
23532;DHT22;11943;52.270;20.978;2023-04-25T04:07:02;11.60;99.90
23532;DHT22;11943;52.270;20.978;2023-04-25T04:09:27;11.60;99.90
23532;DHT22;11943;52.270;20.978;2023-04-25T04:11:53;11.60;99.90
23532;DHT22;11943;52.270;20.978;2023-04-25T04:14:18;11.70;99.90
23532;DHT22;11943;52.270;20.978;2023-04-25T04:16:44;11.70;99.90
23532;DHT22;11943;52.270;20.978;2023-04-25T04:19:10;11.70;99.90
23532;DHT22;11943;52.270;20.978;2023-04-25T04:21:36;11.70;99.90
23532;DHT22;11943;52.270;20.978;2023-04-25T04:24:02;11.80;99.90
23532;DHT22;11943;52.270;20.978;2023-04-25T04:26:27;11.80;99.90
23532;DHT22;11943;52.270;20.978;2023-04-25T04:28:53;11.80;99.90
23532;DHT22;11943;52.270;20.978;2023-04-25T04:31:22;11.80;99.90
23532;DHT22;11943;52.270;20.978;2023-04-25T04:33:49;11.70;99.90
23532;DHT22;11943;52.270;20.978;2023-04-25T04:36:15;11.70;99.90
23532;DHT22;11943;52.270;20.978;2023-04-25T04:38:41;11.70;99.90
23532;DHT22;11943;52.270;20.978;2023-04-25T04:41:07;11.70;99.90
23532;DHT22;11943;52.270;20.978;2023-04-25T04:43:33;11.70;99.90
23532;DHT22;11943;52.270;20.978;2023-04-25T04:46:02;11.80;99.90
23532;DHT22;11943;52.270;20.978;2023-04-25T04:48:30;11.80;99.90
23532;DHT22;11943;52.270;20.978;2023-04-25T04:50:58;11.70;99.90
23532;DHT22;11943;52.270;20.978;2023-04-25T04:53:24;11.80;99.90
23532;DHT22;11943;52.270;20.978;2023-04-25T04:55:49;11.80;99.90
23532;DHT22;11943;52.270;20.978;2023-04-25T04:58:15;11.80;99.90
23532;DHT22;11943;52.270;20.978;2023-04-25T05:00:41;11.80;99.90
23532;DHT22;11943;52.270;20.978;2023-04-25T05:03:06;11.80;99.90
23532;DHT22;11943;52.270;20.978;2023-04-25T05:05:32;11.70;99.90
23532;DHT22;11943;52.270;20.978;2023-04-25T05:07:58;11.70;99.90
23532;DHT22;11943;52.270;20.978;2023-04-25T05:10:23;11.70;99.90
23532;DHT22;11943;52.270;20.978;2023-04-25T05:12:49;11.70;99.90
23532;DHT22;11943;52.270;20.978;2023-04-25T05:15:15;11.60;99.90
23532;DHT22;11943;52.270;20.978;2023-04-25T05:17:40;11.70;99.90
23532;DHT22;11943;52.270;20.978;2023-04-25T05:20:07;11.60;99.90
23532;DHT22;11943;52.270;20.978;2023-04-25T05:22:34;11.60;99.90
23532;DHT22;11943;52.270;20.978;2023-04-25T05:25:01;11.60;99.90
23532;DHT22;11943;52.270;20.978;2023-04-25T05:27:26;11.50;99.90
23532;DHT22;11943;52.270;20.978;2023-04-25T05:29:52;11.40;99.90
23532;DHT22;11943;52.270;20.978;2023-04-25T05:32:18;11.40;99.90
23532;DHT22;11943;52.270;20.978;2023-04-25T05:34:43;11.40;99.90
23532;DHT22;11943;52.270;20.978;2023-04-25T05:37:09;11.40;99.90
23532;DHT22;11943;52.270;20.978;2023-04-25T05:39:35;11.40;99.90
23532;DHT22;11943;52.270;20.978;2023-04-25T05:42:01;11.40;99.90
23532;DHT22;11943;52.270;20.978;2023-04-25T05:44:27;11.40;99.90
23532;DHT22;11943;52.270;20.978;2023-04-25T05:46:53;11.30;99.90
23532;DHT22;11943;52.270;20.978;2023-04-25T05:49:19;11.30;99.90
23532;DHT22;11943;52.270;20.978;2023-04-25T05:51:44;11.30;99.90
23532;DHT22;11943;52.270;20.978;2023-04-25T05:54:10;11.30;99.90
23532;DHT22;11943;52.270;20.978;2023-04-25T05:56:36;11.30;99.90
23532;DHT22;11943;52.270;20.978;2023-04-25T05:59:01;11.30;99.90
23532;DHT22;11943;52.270;20.978;2023-04-25T06:01:28;11.30;99.90
23532;DHT22;11943;52.270;20.978;2023-04-25T06:03:54;11.30;99.90
23532;DHT22;11943;52.270;20.978;2023-04-25T06:06:19;11.40;99.90
23532;DHT22;11943;52.270;20.978;2023-04-25T06:08:45;11.40;99.90
23532;DHT22;11943;52.270;20.978;2023-04-25T06:11:11;11.50;99.90
23532;DHT22;11943;52.270;20.978;2023-04-25T06:13:37;11.40;99.90
23532;DHT22;11943;52.270;20.978;2023-04-25T06:16:03;11.40;99.90
23532;DHT22;11943;52.270;20.978;2023-04-25T06:18:28;11.40;99.90
23532;DHT22;11943;52.270;20.978;2023-04-25T06:20:54;11.40;99.90
23532;DHT22;11943;52.270;20.978;2023-04-25T06:23:19;11.40;99.90
23532;DHT22;11943;52.270;20.978;2023-04-25T06:25:45;11.30;99.90
23532;DHT22;11943;52.270;20.978;2023-04-25T06:28:11;11.30;99.90
23532;DHT22;11943;52.270;20.978;2023-04-25T06:30:37;11.30;99.90
23532;DHT22;11943;52.270;20.978;2023-04-25T06:33:03;11.30;99.90
23532;DHT22;11943;52.270;20.978;2023-04-25T06:35:29;11.20;99.90
23532;DHT22;11943;52.270;20.978;2023-04-25T06:37:55;11.20;99.90
23532;DHT22;11943;52.270;20.978;2023-04-25T06:40:20;11.20;99.90
23532;DHT22;11943;52.270;20.978;2023-04-25T06:42:46;11.10;99.90
23532;DHT22;11943;52.270;20.978;2023-04-25T06:45:11;11.10;99.90
23532;DHT22;11943;52.270;20.978;2023-04-25T06:47:37;11.00;99.90
23532;DHT22;11943;52.270;20.978;2023-04-25T06:50:03;11.00;99.90
23532;DHT22;11943;52.270;20.978;2023-04-25T06:52:29;11.00;99.90
23532;DHT22;11943;52.270;20.978;2023-04-25T06:54:55;10.90;99.90
23532;DHT22;11943;52.270;20.978;2023-04-25T06:57:20;10.70;99.90
23532;DHT22;11943;52.270;20.978;2023-04-25T06:59:46;10.60;99.90
23532;DHT22;11943;52.270;20.978;2023-04-25T07:02:12;10.60;99.90
23532;DHT22;11943;52.270;20.978;2023-04-25T07:04:37;10.60;99.90
23532;DHT22;11943;52.270;20.978;2023-04-25T07:07:03;10.50;99.90
23532;DHT22;11943;52.270;20.978;2023-04-25T07:09:29;10.60;99.90
23532;DHT22;11943;52.270;20.978;2023-04-25T07:11:55;10.60;99.90
23532;DHT22;11943;52.270;20.978;2023-04-25T07:14:22;10.60;99.90
23532;DHT22;11943;52.270;20.978;2023-04-25T07:16:47;10.60;99.90
23532;DHT22;11943;52.270;20.978;2023-04-25T07:19:13;10.70;99.90
23532;DHT22;11943;52.270;20.978;2023-04-25T07:21:39;10.80;99.90
23532;DHT22;11943;52.270;20.978;2023-04-25T07:24:05;11.10;99.90
23532;DHT22;11943;52.270;20.978;2023-04-25T07:26:30;11.20;99.90
23532;DHT22;11943;52.270;20.978;2023-04-25T07:28:56;11.40;99.90
23532;DHT22;11943;52.270;20.978;2023-04-25T07:31:22;11.40;99.90
23532;DHT22;11943;52.270;20.978;2023-04-25T07:33:48;11.50;99.90
23532;DHT22;11943;52.270;20.978;2023-04-25T07:36:14;11.60;99.90
23532;DHT22;11943;52.270;20.978;2023-04-25T07:38:41;11.70;99.90
23532;DHT22;11943;52.270;20.978;2023-04-25T07:41:06;11.60;99.90
23532;DHT22;11943;52.270;20.978;2023-04-25T07:43:32;11.90;99.90
23532;DHT22;11943;52.270;20.978;2023-04-25T07:45:58;12.00;99.90
23532;DHT22;11943;52.270;20.978;2023-04-25T07:48:23;11.80;99.90
23532;DHT22;11943;52.270;20.978;2023-04-25T07:50:49;11.80;99.90
23532;DHT22;11943;52.270;20.978;2023-04-25T07:53:15;11.80;99.90
23532;DHT22;11943;52.270;20.978;2023-04-25T07:55:43;11.70;99.90
23532;DHT22;11943;52.270;20.978;2023-04-25T07:58:09;11.90;99.90
23532;DHT22;11943;52.270;20.978;2023-04-25T08:00:35;11.80;99.90
23532;DHT22;11943;52.270;20.978;2023-04-25T08:03:01;11.80;99.90
23532;DHT22;11943;52.270;20.978;2023-04-25T08:05:28;11.50;99.90
23532;DHT22;11943;52.270;20.978;2023-04-25T08:07:53;11.40;99.90
23532;DHT22;11943;52.270;20.978;2023-04-25T08:10:19;11.20;99.90
23532;DHT22;11943;52.270;20.978;2023-04-25T08:12:45;11.20;99.90
23532;DHT22;11943;52.270;20.978;2023-04-25T08:15:11;11.30;99.90
23532;DHT22;11943;52.270;20.978;2023-04-25T08:17:39;11.30;99.90
23532;DHT22;11943;52.270;20.978;2023-04-25T08:20:05;11.50;99.90
23532;DHT22;11943;52.270;20.978;2023-04-25T08:22:31;11.60;99.90
23532;DHT22;11943;52.270;20.978;2023-04-25T08:24:57;11.60;99.90
23532;DHT22;11943;52.270;20.978;2023-04-25T08:27:23;11.50;99.90
23532;DHT22;11943;52.270;20.978;2023-04-25T08:29:49;11.50;99.90
23532;DHT22;11943;52.270;20.978;2023-04-25T08:32:16;11.30;99.90
23532;DHT22;11943;52.270;20.978;2023-04-25T08:34:41;11.20;99.90
23532;DHT22;11943;52.270;20.978;2023-04-25T08:37:08;11.10;99.90
23532;DHT22;11943;52.270;20.978;2023-04-25T08:39:35;11.10;99.90
23532;DHT22;11943;52.270;20.978;2023-04-25T08:42:02;11.00;99.90
23532;DHT22;11943;52.270;20.978;2023-04-25T08:44:33;11.00;99.90
23532;DHT22;11943;52.270;20.978;2023-04-25T08:46:59;10.90;99.90
23532;DHT22;11943;52.270;20.978;2023-04-25T08:49:25;10.70;99.90
23532;DHT22;11943;52.270;20.978;2023-04-25T08:51:52;10.60;99.90
23532;DHT22;11943;52.270;20.978;2023-04-25T08:54:21;10.70;99.90
23532;DHT22;11943;52.270;20.978;2023-04-25T08:56:51;10.70;99.90
23532;DHT22;11943;52.270;20.978;2023-04-25T08:59:17;10.70;99.90
23532;DHT22;11943;52.270;20.978;2023-04-25T09:01:44;10.80;99.90
23532;DHT22;11943;52.270;20.978;2023-04-25T09:04:12;10.80;99.90
23532;DHT22;11943;52.270;20.978;2023-04-25T09:06:38;10.80;99.90
23532;DHT22;11943;52.270;20.978;2023-04-25T09:09:05;10.70;99.90
23532;DHT22;11943;52.270;20.978;2023-04-25T09:11:32;10.70;99.90
23532;DHT22;11943;52.270;20.978;2023-04-25T09:14:15;10.60;99.90
23532;DHT22;11943;52.270;20.978;2023-04-25T09:17:13;10.80;99.90
23532;DHT22;11943;52.270;20.978;2023-04-25T09:19:39;10.80;99.90
23532;DHT22;11943;52.270;20.978;2023-04-25T09:22:06;10.80;99.90
23532;DHT22;11943;52.270;20.978;2023-04-25T09:24:33;10.70;99.90
23532;DHT22;11943;52.270;20.978;2023-04-25T09:26:59;10.70;99.90
23532;DHT22;11943;52.270;20.978;2023-04-25T09:29:32;10.70;99.90
23532;DHT22;11943;52.270;20.978;2023-04-25T09:32:21;10.60;99.90
23532;DHT22;11943;52.270;20.978;2023-04-25T09:34:51;10.60;99.90
23532;DHT22;11943;52.270;20.978;2023-04-25T09:37:22;10.70;99.90
23532;DHT22;11943;52.270;20.978;2023-04-25T09:39:51;10.70;99.90
23532;DHT22;11943;52.270;20.978;2023-04-25T09:42:17;10.70;99.90
23532;DHT22;11943;52.270;20.978;2023-04-25T09:44:44;10.70;99.90
23532;DHT22;11943;52.270;20.978;2023-04-25T09:47:15;10.70;99.90
23532;DHT22;11943;52.270;20.978;2023-04-25T09:49:42;10.70;99.90
23532;DHT22;11943;52.270;20.978;2023-04-25T09:52:08;10.70;99.90
23532;DHT22;11943;52.270;20.978;2023-04-25T09:54:34;10.70;99.90
23532;DHT22;11943;52.270;20.978;2023-04-25T09:57:18;10.70;99.90
23532;DHT22;11943;52.270;20.978;2023-04-25T09:59:48;10.60;99.90
23532;DHT22;11943;52.270;20.978;2023-04-25T10:02:17;10.60;99.90
23532;DHT22;11943;52.270;20.978;2023-04-25T10:04:48;10.50;99.90
23532;DHT22;11943;52.270;20.978;2023-04-25T10:07:14;10.70;99.90
23532;DHT22;11943;52.270;20.978;2023-04-25T10:09:40;10.70;99.90
23532;DHT22;11943;52.270;20.978;2023-04-25T10:12:07;10.70;99.90
23532;DHT22;11943;52.270;20.978;2023-04-25T10:14:34;10.60;99.90
23532;DHT22;11943;52.270;20.978;2023-04-25T10:17:00;10.50;99.90
23532;DHT22;11943;52.270;20.978;2023-04-25T10:19:27;10.60;99.90
23532;DHT22;11943;52.270;20.978;2023-04-25T10:24:26;10.60;99.90
23532;DHT22;11943;52.270;20.978;2023-04-25T10:26:52;10.60;99.90
23532;DHT22;11943;52.270;20.978;2023-04-25T10:29:26;10.60;99.90
23532;DHT22;11943;52.270;20.978;2023-04-25T10:31:51;10.60;99.90
23532;DHT22;11943;52.270;20.978;2023-04-25T10:34:18;10.50;99.90
23532;DHT22;11943;52.270;20.978;2023-04-25T10:36:50;10.50;99.90
23532;DHT22;11943;52.270;20.978;2023-04-25T10:39:27;10.50;99.90
23532;DHT22;11943;52.270;20.978;2023-04-25T10:41:58;10.50;99.90
23532;DHT22;11943;52.270;20.978;2023-04-25T10:44:28;10.60;99.90
23532;DHT22;11943;52.270;20.978;2023-04-25T10:46:58;10.70;99.90
23532;DHT22;11943;52.270;20.978;2023-04-25T10:49:35;10.70;99.90
23532;DHT22;11943;52.270;20.978;2023-04-25T10:52:30;10.80;99.90
23532;DHT22;11943;52.270;20.978;2023-04-25T10:54:58;10.80;99.90
23532;DHT22;11943;52.270;20.978;2023-04-25T10:57:31;10.80;99.90
23532;DHT22;11943;52.270;20.978;2023-04-25T11:00:10;10.80;99.90
23532;DHT22;11943;52.270;20.978;2023-04-25T11:02:40;10.80;99.90
23532;DHT22;11943;52.270;20.978;2023-04-25T11:05:06;10.80;99.90
23532;DHT22;11943;52.270;20.978;2023-04-25T11:10:12;10.80;99.90
23532;DHT22;11943;52.270;20.978;2023-04-25T11:12:39;10.80;99.90
23532;DHT22;11943;52.270;20.978;2023-04-25T11:15:06;10.80;99.90
23532;DHT22;11943;52.270;20.978;2023-04-25T11:17:32;11.00;99.90
23532;DHT22;11943;52.270;20.978;2023-04-25T11:19:58;10.90;99.90
23532;DHT22;11943;52.270;20.978;2023-04-25T11:22:24;10.90;99.90
23532;DHT22;11943;52.270;20.978;2023-04-25T11:24:51;11.00;99.90
23532;DHT22;11943;52.270;20.978;2023-04-25T11:27:17;11.00;99.90
23532;DHT22;11943;52.270;20.978;2023-04-25T11:29:43;11.10;99.90
23532;DHT22;11943;52.270;20.978;2023-04-25T11:32:08;11.10;99.90
23532;DHT22;11943;52.270;20.978;2023-04-25T11:34:34;11.10;99.90
23532;DHT22;11943;52.270;20.978;2023-04-25T11:37:01;11.10;99.90
23532;DHT22;11943;52.270;20.978;2023-04-25T11:39:28;11.20;99.90
23532;DHT22;11943;52.270;20.978;2023-04-25T11:41:54;11.10;99.90
23532;DHT22;11943;52.270;20.978;2023-04-25T11:44:21;11.00;99.90
23532;DHT22;11943;52.270;20.978;2023-04-25T11:46:47;11.00;99.90
23532;DHT22;11943;52.270;20.978;2023-04-25T11:49:14;11.00;99.90
23532;DHT22;11943;52.270;20.978;2023-04-25T11:54:06;11.20;99.90
23532;DHT22;11943;52.270;20.978;2023-04-25T11:56:31;11.20;99.90
23532;DHT22;11943;52.270;20.978;2023-04-25T12:01:35;11.20;99.90
23532;DHT22;11943;52.270;20.978;2023-04-25T12:06:37;11.30;99.90
23532;DHT22;11943;52.270;20.978;2023-04-25T12:09:08;11.30;99.90
23532;DHT22;11943;52.270;20.978;2023-04-25T12:11:44;11.40;99.90
23532;DHT22;11943;52.270;20.978;2023-04-25T12:14:11;11.40;99.90
23532;DHT22;11943;52.270;20.978;2023-04-25T12:16:44;11.40;99.90
23532;DHT22;11943;52.270;20.978;2023-04-25T12:19:14;11.30;99.90
23532;DHT22;11943;52.270;20.978;2023-04-25T12:21:40;11.40;99.90
23532;DHT22;11943;52.270;20.978;2023-04-25T12:24:22;11.40;99.90
23532;DHT22;11943;52.270;20.978;2023-04-25T12:27:01;11.30;99.90
23532;DHT22;11943;52.270;20.978;2023-04-25T12:29:30;11.40;99.90
23532;DHT22;11943;52.270;20.978;2023-04-25T12:31:57;11.30;99.90
23532;DHT22;11943;52.270;20.978;2023-04-25T12:34:23;11.30;99.90
23532;DHT22;11943;52.270;20.978;2023-04-25T12:36:50;11.30;99.90
23532;DHT22;11943;52.270;20.978;2023-04-25T12:39:16;11.30;99.90
23532;DHT22;11943;52.270;20.978;2023-04-25T12:41:43;11.30;99.90
23532;DHT22;11943;52.270;20.978;2023-04-25T12:44:09;11.40;99.90
23532;DHT22;11943;52.270;20.978;2023-04-25T12:46:35;11.30;99.90
23532;DHT22;11943;52.270;20.978;2023-04-25T12:49:00;11.20;99.90
23532;DHT22;11943;52.270;20.978;2023-04-25T12:51:26;11.30;99.90
23532;DHT22;11943;52.270;20.978;2023-04-25T12:53:53;11.20;99.90
23532;DHT22;11943;52.270;20.978;2023-04-25T12:56:19;11.30;99.90
23532;DHT22;11943;52.270;20.978;2023-04-25T12:58:45;11.30;99.90
23532;DHT22;11943;52.270;20.978;2023-04-25T13:01:11;11.30;99.90
23532;DHT22;11943;52.270;20.978;2023-04-25T13:03:37;11.20;99.90
23532;DHT22;11943;52.270;20.978;2023-04-25T13:06:03;11.00;99.90
23532;DHT22;11943;52.270;20.978;2023-04-25T13:08:30;10.90;99.90
23532;DHT22;11943;52.270;20.978;2023-04-25T13:10:55;10.90;99.90
23532;DHT22;11943;52.270;20.978;2023-04-25T13:13:21;10.90;99.90
23532;DHT22;11943;52.270;20.978;2023-04-25T13:15:46;10.80;99.90
23532;DHT22;11943;52.270;20.978;2023-04-25T13:18:13;10.80;99.90
23532;DHT22;11943;52.270;20.978;2023-04-25T13:20:38;10.80;99.90
23532;DHT22;11943;52.270;20.978;2023-04-25T13:23:04;10.80;99.90
23532;DHT22;11943;52.270;20.978;2023-04-25T13:25:29;10.80;99.90
23532;DHT22;11943;52.270;20.978;2023-04-25T13:27:55;10.90;99.90
23532;DHT22;11943;52.270;20.978;2023-04-25T13:30:21;10.80;99.90
23532;DHT22;11943;52.270;20.978;2023-04-25T13:32:46;10.90;99.90
23532;DHT22;11943;52.270;20.978;2023-04-25T13:35:13;10.90;99.90
23532;DHT22;11943;52.270;20.978;2023-04-25T13:37:39;10.90;99.90
23532;DHT22;11943;52.270;20.978;2023-04-25T13:40:07;11.00;99.90
23532;DHT22;11943;52.270;20.978;2023-04-25T13:42:35;11.00;99.90
23532;DHT22;11943;52.270;20.978;2023-04-25T13:45:02;11.20;99.90
23532;DHT22;11943;52.270;20.978;2023-04-25T13:47:28;11.20;99.90
23532;DHT22;11943;52.270;20.978;2023-04-25T13:49:54;11.10;99.90
23532;DHT22;11943;52.270;20.978;2023-04-25T13:52:20;11.00;99.90
23532;DHT22;11943;52.270;20.978;2023-04-25T13:54:46;11.00;99.90
23532;DHT22;11943;52.270;20.978;2023-04-25T13:57:12;11.00;99.90
23532;DHT22;11943;52.270;20.978;2023-04-25T13:59:38;10.90;99.90
23532;DHT22;11943;52.270;20.978;2023-04-25T14:02:03;10.90;99.90
23532;DHT22;11943;52.270;20.978;2023-04-25T14:04:29;10.90;99.90
23532;DHT22;11943;52.270;20.978;2023-04-25T14:06:55;11.00;99.90
23532;DHT22;11943;52.270;20.978;2023-04-25T14:09:21;11.00;99.90
23532;DHT22;11943;52.270;20.978;2023-04-25T14:11:51;11.10;99.90
23532;DHT22;11943;52.270;20.978;2023-04-25T14:14:18;10.90;99.90
23532;DHT22;11943;52.270;20.978;2023-04-25T14:16:44;10.90;99.90
23532;DHT22;11943;52.270;20.978;2023-04-25T14:19:10;10.80;99.90
23532;DHT22;11943;52.270;20.978;2023-04-25T14:21:35;11.00;99.90
23532;DHT22;11943;52.270;20.978;2023-04-25T14:24:01;11.00;99.90
23532;DHT22;11943;52.270;20.978;2023-04-25T14:26:27;11.00;99.90
23532;DHT22;11943;52.270;20.978;2023-04-25T14:28:52;11.00;99.90
23532;DHT22;11943;52.270;20.978;2023-04-25T14:31:18;11.00;99.90
23532;DHT22;11943;52.270;20.978;2023-04-25T14:33:44;11.00;99.90
23532;DHT22;11943;52.270;20.978;2023-04-25T14:36:10;11.00;99.90
23532;DHT22;11943;52.270;20.978;2023-04-25T14:38:36;10.90;99.90
23532;DHT22;11943;52.270;20.978;2023-04-25T14:41:02;10.80;99.90
23532;DHT22;11943;52.270;20.978;2023-04-25T14:43:28;10.80;99.90
23532;DHT22;11943;52.270;20.978;2023-04-25T14:45:54;10.60;99.90
23532;DHT22;11943;52.270;20.978;2023-04-25T14:48:19;10.60;99.90
23532;DHT22;11943;52.270;20.978;2023-04-25T14:50:46;10.60;99.90
23532;DHT22;11943;52.270;20.978;2023-04-25T14:53:12;10.60;99.90
23532;DHT22;11943;52.270;20.978;2023-04-25T14:55:38;10.70;99.90
23532;DHT22;11943;52.270;20.978;2023-04-25T14:58:04;10.70;99.90
23532;DHT22;11943;52.270;20.978;2023-04-25T15:00:30;10.70;99.90
23532;DHT22;11943;52.270;20.978;2023-04-25T15:02:57;10.70;99.90
23532;DHT22;11943;52.270;20.978;2023-04-25T15:05:23;10.70;99.90
23532;DHT22;11943;52.270;20.978;2023-04-25T15:07:50;10.60;99.90
23532;DHT22;11943;52.270;20.978;2023-04-25T15:10:18;10.60;99.90
23532;DHT22;11943;52.270;20.978;2023-04-25T15:12:44;10.60;99.90
23532;DHT22;11943;52.270;20.978;2023-04-25T15:15:10;10.70;99.90
23532;DHT22;11943;52.270;20.978;2023-04-25T15:17:46;10.60;99.90
23532;DHT22;11943;52.270;20.978;2023-04-25T15:20:12;10.60;99.90
23532;DHT22;11943;52.270;20.978;2023-04-25T15:22:39;10.60;99.90
23532;DHT22;11943;52.270;20.978;2023-04-25T15:25:06;10.60;99.90
23532;DHT22;11943;52.270;20.978;2023-04-25T15:27:39;10.60;99.90
23532;DHT22;11943;52.270;20.978;2023-04-25T15:30:13;10.60;99.90
23532;DHT22;11943;52.270;20.978;2023-04-25T15:32:41;10.60;99.90
23532;DHT22;11943;52.270;20.978;2023-04-25T15:35:07;10.50;99.90
23532;DHT22;11943;52.270;20.978;2023-04-25T15:37:33;10.50;99.90
23532;DHT22;11943;52.270;20.978;2023-04-25T15:40:12;10.50;99.90
23532;DHT22;11943;52.270;20.978;2023-04-25T15:42:42;10.60;99.90
23532;DHT22;11943;52.270;20.978;2023-04-25T15:45:09;10.50;99.90